TimeCST,TemperatureF,Dew PointF,Humidity,Sea Level PressureIn,VisibilityMPH,Wind Direction,Wind SpeedMPH,Gust SpeedMPH,PrecipitationIn,Events,Conditions,WindDirDegrees,DateUTC
12:52 AM,3.0,-2.9,76,30.20,-9999.0,NNW,11.5,-,N/A,,Unknown,330,2013-02-02 06:52:00
1:52 AM,3.0,-2.9,76,30.20,-9999.0,NNW,9.2,-,N/A,,Unknown,340,2013-02-02 07:52:00
2:52 AM,3.0,-2.9,76,30.19,-9999.0,North,8.1,-,N/A,,Unknown,350,2013-02-02 08:52:00
3:52 AM,-0.0,-4.0,83,30.18,-9999.0,Calm,Calm,-,N/A,,Unknown,0,2013-02-02 09:52:00
4:52 AM,1.9,-2.9,80,30.17,-9999.0,Calm,Calm,-,N/A,,Unknown,0,2013-02-02 10:52:00
5:52 AM,3.0,-2.0,80,30.16,-9999.0,Calm,Calm,-,N/A,,Unknown,0,2013-02-02 11:52:00
6:52 AM,3.9,-0.0,84,30.12,-9999.0,SSW,4.6,-,N/A,,Unknown,210,2013-02-02 12:52:00
7:52 AM,6.1,1.9,83,30.09,-9999.0,South,6.9,-,N/A,,Unknown,190,2013-02-02 13:52:00
8:52 AM,9.0,5.0,84,30.04,-9999.0,SSW,8.1,-,0.03,,Unknown,200,2013-02-02 14:52:00
9:52 AM,12.9,10.9,92,30.01,-9999.0,SSW,6.9,-,0.08,,Unknown,210,2013-02-02 15:52:00
10:52 AM,21.9,19.0,89,29.99,-9999.0,West,16.1,-,0.03,,Unknown,270,2013-02-02 16:52:00
11:52 AM,32.0,28.0,85,29.97,-9999.0,WNW,28.8,39.1,0.02,,Unknown,300,2013-02-02 17:52:00
12:52 PM,32.0,28.0,85,29.99,-9999.0,NW,38.0,47.2,N/A,,Unknown,310,2013-02-02 18:52:00
1:52 PM,25.0,21.9,88,30.06,-9999.0,NNW,29.9,40.3,0.01,,Unknown,330,2013-02-02 19:52:00
2:52 PM,19.9,16.0,85,30.09,-9999.0,NW,38.0,50.6,N/A,,Unknown,310,2013-02-02 20:52:00
3:52 PM,18.0,14.0,84,30.14,-9999.0,NW,33.4,43.7,N/A,,Unknown,310,2013-02-02 21:52:00
4:52 PM,15.1,10.9,84,30.18,-9999.0,NW,28.8,36.8,N/A,,Unknown,320,2013-02-02 22:52:00
5:52 PM,12.0,8.1,84,30.21,-9999.0,NW,25.3,34.5,N/A,,Unknown,310,2013-02-02 23:52:00
6:52 PM,12.0,7.0,80,30.24,-9999.0,NW,19.6,-,0.01,,Unknown,310,2013-02-03 00:52:00
7:52 PM,10.9,6.1,81,30.25,-9999.0,NNW,17.3,-,N/A,,Unknown,330,2013-02-03 01:52:00
8:52 PM,10.9,7.0,84,30.22,-9999.0,NNW,10.4,-,N/A,,Unknown,340,2013-02-03 02:52:00
9:52 PM,12.9,8.1,81,30.20,-9999.0,NW,12.7,-,N/A,,Unknown,310,2013-02-03 03:52:00
10:52 PM,15.1,9.0,77,30.18,-9999.0,WNW,12.7,-,N/A,,Unknown,300,2013-02-03 04:52:00
11:52 PM,17.1,12.0,81,30.14,-9999.0,WNW,11.5,-,N/A,,Unknown,290,2013-02-03 05:52:00